Time;durP1;ratioP1;P1;durP2;ratioP2;P2;SDS_P1;SDS_P2;PMS_P1;PMS_P2;Temp;Humidity;BMP_temperature;BMP_pressure;BME280_temperature;BME280_humidity;BME280_pressure;Samples;Min_cycle;Max_cycle;Signal;HPM_P1;HPM_P2
2021/09/12 00:00:41;;;;;;;18.50;12.20;;;;;;;;;;5087230;28;20024;-76
2021/09/12 00:03:08;;;;;;;17.88;12.38;;;;;;;;;;5094016;28;20024;-76
2021/09/12 00:05:33;;;;;;;17.73;11.85;;;;;;;;;;5089211;28;20039;-76
2021/09/12 00:07:59;;;;;;;14.93;11.50;;;;;;;;;;5079758;28;20032;-76
2021/09/12 00:10:26;;;;;;;19.77;11.90;;;;;;;;;;5079687;28;20387;-76
2021/09/12 00:12:51;;;;;;;14.95;11.82;;;;;;;;;;5081326;28;20028;-76
2021/09/12 00:15:17;;;;;;;13.82;10.82;;;;;;;;;;5074703;28;20029;-76
2021/09/12 00:17:42;;;;;;;15.35;11.80;;;;;;;;;;5064778;28;20024;-76
2021/09/12 00:20:09;;;;;;;17.30;12.23;;;;;;;;;;5091413;28;20063;-76
2021/09/12 00:22:35;;;;;;;18.02;12.38;;;;;;;;;;5075327;28;20380;-76
2021/09/12 00:25:01;;;;;;;16.23;12.27;;;;;;;;;;5078804;28;20031;-76
2021/09/12 00:27:26;;;;;;;17.35;11.43;;;;;;;;;;5090299;28;20035;-76
2021/09/12 00:29:52;;;;;;;17.25;11.93;;;;;;;;;;5082440;28;20075;-76
2021/09/12 00:32:17;;;;;;;17.00;11.63;;;;;;;;;;5088620;28;20069;-76
2021/09/12 00:34:43;;;;;;;13.80;9.70;;;;;;;;;;5079487;28;20380;-77
2021/09/12 00:37:08;;;;;;;14.55;10.75;;;;;;;;;;5076401;28;20020;-76
2021/09/12 00:39:34;;;;;;;15.50;10.73;;;;;;;;;;5071954;28;20023;-76
2021/09/12 00:41:59;;;;;;;15.05;9.32;;;;;;;;;;5091879;28;20118;-76
2021/09/12 00:44:25;;;;;;;14.35;9.93;;;;;;;;;;5091326;28;20055;-76
2021/09/12 00:46:53;;;;;;;15.13;9.55;;;;;;;;;;5089443;28;20094;-76
2021/09/12 00:49:18;;;;;;;11.07;8.20;;;;;;;;;;5075893;28;20026;-76
2021/09/12 00:51:44;;;;;;;15.18;9.00;;;;;;;;;;5094103;28;20472;-76
2021/09/12 00:54:10;;;;;;;10.75;8.13;;;;;;;;;;5091487;28;20069;-76
2021/09/12 00:56:38;;;;;;;9.77;8.68;;;;;;;;;;5085200;28;20032;-76
2021/09/12 00:59:07;;;;;;;13.20;9.00;;;;;;;;;;5086821;28;20056;-76
2021/09/12 01:01:33;;;;;;;10.20;7.80;;;;;;;;;;5073809;28;20059;-76
2021/09/12 01:03:59;;;;;;;10.15;7.13;;;;;;;;;;5086926;28;20043;-77
2021/09/12 01:06:25;;;;;;;10.85;8.20;;;;;;;;;;5078477;28;20028;-77
2021/09/12 01:08:50;;;;;;;14.52;9.00;;;;;;;;;;5080084;28;20071;-77
2021/09/12 01:11:16;;;;;;;9.88;7.80;;;;;;;;;;5073201;28;20035;-77
2021/09/12 01:13:43;;;;;;;9.38;6.88;;;;;;;;;;5075627;28;20032;-76
2021/09/12 01:16:14;;;;;;;10.85;7.22;;;;;;;;;;5085017;28;20082;-77
2021/09/12 01:18:40;;;;;;;10.63;6.68;;;;;;;;;;5083742;28;20023;-77
2021/09/12 01:21:12;;;;;;;11.35;6.68;;;;;;;;;;5092860;28;20038;-78
2021/09/12 01:23:38;;;;;;;10.27;7.78;;;;;;;;;;5091739;28;20169;-77
2021/09/12 01:26:04;;;;;;;9.35;7.18;;;;;;;;;;5080865;28;20081;-76
2021/09/12 01:28:29;;;;;;;10.70;7.40;;;;;;;;;;5073519;28;20107;-76
2021/09/12 01:30:55;;;;;;;10.80;7.70;;;;;;;;;;5059305;28;20028;-76
2021/09/12 01:33:20;;;;;;;8.85;7.00;;;;;;;;;;5068458;28;20021;-77
2021/09/12 01:35:46;;;;;;;9.18;6.60;;;;;;;;;;5080739;28;20028;-77
2021/09/12 01:38:11;;;;;;;12.02;7.20;;;;;;;;;;5092434;28;20111;-77
2021/09/12 01:40:37;;;;;;;9.20;6.32;;;;;;;;;;5081750;28;20028;-77
2021/09/12 01:43:02;;;;;;;8.63;6.43;;;;;;;;;;5072837;28;20029;-77
2021/09/12 01:45:28;;;;;;;8.32;6.10;;;;;;;;;;5076857;28;20365;-76
2021/09/12 01:47:59;;;;;;;9.32;6.30;;;;;;;;;;5076667;28;20652;-77
2021/09/12 01:50:26;;;;;;;8.32;6.10;;;;;;;;;;5055630;28;20167;-76
2021/09/12 01:52:53;;;;;;;8.25;6.05;;;;;;;;;;5072774;28;20099;-76
2021/09/12 01:55:19;;;;;;;8.15;6.18;;;;;;;;;;5081864;28;20437;-77
2021/09/12 01:57:45;;;;;;;7.22;6.00;;;;;;;;;;5087191;28;20120;-77
2021/09/12 02:00:10;;;;;;;9.18;6.53;;;;;;;;;;5056541;28;20087;-77
2021/09/12 02:02:36;;;;;;;8.80;5.82;;;;;;;;;;5073286;28;20040;-77
2021/09/12 02:05:02;;;;;;;8.48;5.82;;;;;;;;;;5092369;28;20024;-77
2021/09/12 02:07:28;;;;;;;8.80;5.75;;;;;;;;;;5092222;28;20024;-77
2021/09/12 02:09:53;;;;;;;8.73;5.60;;;;;;;;;;5090506;28;20028;-77
2021/09/12 02:12:19;;;;;;;7.85;5.45;;;;;;;;;;5084675;28;20130;-77
2021/09/12 02:14:45;;;;;;;8.02;5.68;;;;;;;;;;5083005;28;20040;-77
2021/09/12 02:17:10;;;;;;;6.88;4.80;;;;;;;;;;5071974;28;20051;-77
2021/09/12 02:19:36;;;;;;;6.35;5.28;;;;;;;;;;5084399;28;20032;-77
2021/09/12 02:22:01;;;;;;;8.60;5.82;;;;;;;;;;5055240;28;20025;-77
2021/09/12 02:24:27;;;;;;;7.30;5.20;;;;;;;;;;5071436;28;20029;-77
2021/09/12 02:26:52;;;;;;;7.05;5.13;;;;;;;;;;5080387;28;20039;-77
2021/09/12 02:29:18;;;;;;;5.85;4.85;;;;;;;;;;5086579;28;20491;-77
2021/09/12 02:31:43;;;;;;;6.28;4.80;;;;;;;;;;5092263;28;20237;-76
2021/09/12 02:34:09;;;;;;;7.72;5.47;;;;;;;;;;5082092;28;20459;-76
2021/09/12 02:36:34;;;;;;;6.45;5.18;;;;;;;;;;5079078;28;20031;-77
2021/09/12 02:39:00;;;;;;;7.32;5.30;;;;;;;;;;5082832;28;20414;-77
2021/09/12 02:41:25;;;;;;;6.55;5.03;;;;;;;;;;5091542;28;20032;-77
2021/09/12 02:43:51;;;;;;;7.90;5.82;;;;;;;;;;5076916;28;20032;-77
2021/09/12 02:46:16;;;;;;;9.80;5.63;;;;;;;;;;5070559;28;20024;-77
2021/09/12 02:48:42;;;;;;;7.28;6.00;;;;;;;;;;5074428;28;20032;-77
2021/09/12 02:51:07;;;;;;;8.25;5.85;;;;;;;;;;5086584;28;20047;-76
2021/09/12 02:53:33;;;;;;;8.23;6.05;;;;;;;;;;5074004;28;20029;-77
2021/09/12 02:55:59;;;;;;;7.22;5.88;;;;;;;;;;5078454;28;20412;-77
2021/09/12 02:58:24;;;;;;;9.80;6.05;;;;;;;;;;5090989;28;20043;-77
2021/09/12 03:00:50;;;;;;;9.38;6.40;;;;;;;;;;5090013;28;20023;-76
2021/09/12 03:03:16;;;;;;;8.30;6.38;;;;;;;;;;5082306;28;20031;-76
2021/09/12 03:05:41;;;;;;;8.82;7.05;;;;;;;;;;5081443;28;20028;-76
2021/09/12 03:08:08;;;;;;;9.85;7.13;;;;;;;;;;5076062;28;20044;-77
2021/09/12 03:10:33;;;;;;;10.68;6.95;;;;;;;;;;5076713;28;20036;-77
2021/09/12 03:12:59;;;;;;;10.63;7.03;;;;;;;;;;5072863;28;20027;-77
2021/09/12 03:15:25;;;;;;;12.93;7.05;;;;;;;;;;5071323;28;20055;-76
2021/09/12 03:17:51;;;;;;;9.80;7.40;;;;;;;;;;5071077;28;20522;-76
2021/09/12 03:20:16;;;;;;;12.32;8.85;;;;;;;;;;5070866;28;20028;-76
2021/09/12 03:22:42;;;;;;;15.30;9.55;;;;;;;;;;5071100;28;20028;-76
2021/09/12 03:25:08;;;;;;;15.88;10.40;;;;;;;;;;5083349;28;20483;-76
2021/09/12 03:27:33;;;;;;;17.88;11.40;;;;;;;;;;5073785;28;20434;-77
2021/09/12 03:29:59;;;;;;;17.17;11.15;;;;;;;;;;5047275;28;20070;-76
2021/09/12 03:32:24;;;;;;;19.25;11.57;;;;;;;;;;5068699;28;20034;-76
2021/09/12 03:34:50;;;;;;;19.85;12.13;;;;;;;;;;5075738;28;20024;-76
2021/09/12 03:37:16;;;;;;;17.15;11.70;;;;;;;;;;5090881;28;20035;-77
2021/09/12 03:39:41;;;;;;;20.30;11.65;;;;;;;;;;5088941;28;20321;-76
2021/09/12 03:42:07;;;;;;;18.10;11.77;;;;;;;;;;5085278;28;20117;-75
2021/09/12 03:44:32;;;;;;;17.08;11.98;;;;;;;;;;5070734;28;20025;-76
2021/09/12 03:46:58;;;;;;;18.08;12.35;;;;;;;;;;5087467;28;20020;-76
2021/09/12 03:49:23;;;;;;;17.80;11.30;;;;;;;;;;5090031;28;20043;-76
2021/09/12 03:51:48;;;;;;;22.73;12.43;;;;;;;;;;5083979;28;20021;-76
2021/09/12 03:54:14;;;;;;;17.98;11.57;;;;;;;;;;5071026;28;20024;-76
2021/09/12 03:56:39;;;;;;;15.43;11.80;;;;;;;;;;5083481;28;20111;-76
2021/09/12 03:59:05;;;;;;;15.60;11.40;;;;;;;;;;5077553;28;20105;-76
2021/09/12 04:01:31;;;;;;;15.45;11.25;;;;;;;;;;5058830;28;20510;-76
2021/09/12 04:03:56;;;;;;;19.48;11.25;;;;;;;;;;5090737;28;20384;-76
2021/09/12 04:06:21;;;;;;;16.15;10.95;;;;;;;;;;5074575;28;20472;-76
2021/09/12 04:08:47;;;;;;;15.88;11.23;;;;;;;;;;5070940;28;20033;-76
2021/09/12 04:11:13;;;;;;;16.33;10.95;;;;;;;;;;5070547;28;20472;-76
2021/09/12 04:13:38;;;;;;;15.88;10.85;;;;;;;;;;5065186;28;20078;-76
2021/09/12 04:16:04;;;;;;;15.45;11.38;;;;;;;;;;5070519;28;20498;-75
2021/09/12 04:18:29;;;;;;;15.88;11.05;;;;;;;;;;5084266;28;20063;-76
2021/09/12 04:20:55;;;;;;;16.85;10.52;;;;;;;;;;5071994;28;20029;-76
2021/09/12 04:23:20;;;;;;;16.80;10.13;;;;;;;;;;5059685;28;20432;-75
2021/09/12 04:25:46;;;;;;;15.60;10.40;;;;;;;;;;5058994;28;20471;-76
2021/09/12 04:28:11;;;;;;;14.07;10.35;;;;;;;;;;5070970;28;20115;-77
2021/09/12 04:30:37;;;;;;;15.55;10.30;;;;;;;;;;5066703;28;20372;-76
2021/09/12 04:33:02;;;;;;;18.33;10.68;;;;;;;;;;5070003;28;20017;-75
2021/09/12 04:35:28;;;;;;;13.38;9.43;;;;;;;;;;5070178;28;20069;-76
2021/09/12 04:37:53;;;;;;;15.48;9.75;;;;;;;;;;5077301;28;20019;-76
2021/09/12 04:40:19;;;;;;;15.05;9.05;;;;;;;;;;5073313;28;20073;-75
2021/09/12 04:42:44;;;;;;;11.18;9.00;;;;;;;;;;5073250;28;20036;-75
2021/09/12 04:45:10;;;;;;;14.02;9.15;;;;;;;;;;5063991;28;20021;-75
2021/09/12 04:47:36;;;;;;;13.70;9.35;;;;;;;;;;5083105;28;20036;-75
2021/09/12 04:50:01;;;;;;;12.82;9.68;;;;;;;;;;5084094;28;20476;-75
2021/09/12 04:52:27;;;;;;;14.00;10.30;;;;;;;;;;5093885;28;20069;-75
2021/09/12 04:54:53;;;;;;;14.25;10.45;;;;;;;;;;5086094;28;20037;-76
2021/09/12 04:57:18;;;;;;;13.32;9.98;;;;;;;;;;5063060;28;20480;-76
2021/09/12 04:59:44;;;;;;;16.17;10.75;;;;;;;;;;5069947;28;20500;-75
2021/09/12 05:02:10;;;;;;;15.60;10.75;;;;;;;;;;5085532;28;20078;-75
2021/09/12 05:04:35;;;;;;;18.85;11.55;;;;;;;;;;5078789;28;20115;-75
2021/09/12 05:07:00;;;;;;;18.75;11.55;;;;;;;;;;5073682;28;20492;-76
2021/09/12 05:09:26;;;;;;;19.73;11.73;;;;;;;;;;5076203;28;20039;-75
2021/09/12 05:11:51;;;;;;;20.17;12.30;;;;;;;;;;5073480;28;20048;-75
2021/09/12 05:14:17;;;;;;;17.67;11.93;;;;;;;;;;5091831;28;20028;-76
2021/09/12 05:16:43;;;;;;;16.83;11.68;;;;;;;;;;5056468;28;20033;-75
2021/09/12 05:19:08;;;;;;;18.65;11.77;;;;;;;;;;5087100;28;20464;-75
2021/09/12 05:21:35;;;;;;;18.00;12.23;;;;;;;;;;5058553;28;20028;-76
2021/09/12 05:24:00;;;;;;;17.98;11.90;;;;;;;;;;5072692;28;20035;-76
2021/09/12 05:26:26;;;;;;;16.35;11.35;;;;;;;;;;5056951;28;20020;-76
2021/09/12 05:28:51;;;;;;;17.15;12.25;;;;;;;;;;5081814;28;20372;-76
2021/09/12 05:31:17;;;;;;;18.45;12.02;;;;;;;;;;5053199;28;20025;-76
2021/09/12 05:33:43;;;;;;;18.45;11.52;;;;;;;;;;5060716;28;20027;-76
2021/09/12 05:36:09;;;;;;;16.02;11.25;;;;;;;;;;5071263;28;20024;-76
2021/09/12 05:38:34;;;;;;;16.70;11.65;;;;;;;;;;5077064;28;20025;-76
2021/09/12 05:41:00;;;;;;;17.65;11.73;;;;;;;;;;5071508;28;20040;-75
2021/09/12 05:43:26;;;;;;;18.23;11.63;;;;;;;;;;5071507;28;20031;-76
2021/09/12 05:45:51;;;;;;;20.17;11.57;;;;;;;;;;5072920;28;20024;-76
2021/09/12 05:48:16;;;;;;;18.52;12.02;;;;;;;;;;5071184;28;20047;-76
2021/09/12 05:50:42;;;;;;;20.27;12.60;;;;;;;;;;5069993;28;20063;-76
2021/09/12 05:53:09;;;;;;;18.65;12.45;;;;;;;;;;5070948;28;20020;-76
2021/09/12 05:55:37;;;;;;;20.55;12.27;;;;;;;;;;5067933;28;20031;-76
2021/09/12 05:58:03;;;;;;;23.25;13.15;;;;;;;;;;5069287;28;20025;-76
2021/09/12 06:00:29;;;;;;;18.50;11.95;;;;;;;;;;5075892;28;20519;-76
2021/09/12 06:02:54;;;;;;;22.50;12.25;;;;;;;;;;5064044;28;20033;-76
2021/09/12 06:05:20;;;;;;;19.73;13.07;;;;;;;;;;5076842;28;20484;-76
2021/09/12 06:07:45;;;;;;;18.65;12.60;;;;;;;;;;5071040;28;20475;-76
2021/09/12 06:10:11;;;;;;;17.17;12.63;;;;;;;;;;5075376;28;20025;-76
2021/09/12 06:12:37;;;;;;;20.55;13.05;;;;;;;;;;5063649;28;20031;-76
2021/09/12 06:15:03;;;;;;;20.73;12.68;;;;;;;;;;5086892;28;20027;-76
2021/09/12 06:17:29;;;;;;;17.58;12.73;;;;;;;;;;5086592;28;20178;-76
2021/09/12 06:19:54;;;;;;;17.35;12.27;;;;;;;;;;5072229;28;20103;-76
2021/09/12 06:22:20;;;;;;;20.92;13.52;;;;;;;;;;5072186;28;20093;-76
2021/09/12 06:24:46;;;;;;;18.27;13.25;;;;;;;;;;5071946;28;20498;-76
2021/09/12 06:27:12;;;;;;;18.63;13.45;;;;;;;;;;5079833;28;20375;-76
2021/09/12 06:29:38;;;;;;;19.38;13.32;;;;;;;;;;5084993;28;20166;-76
2021/09/12 06:32:04;;;;;;;21.80;13.20;;;;;;;;;;5068565;28;20040;-76
2021/09/12 06:34:29;;;;;;;20.48;12.68;;;;;;;;;;5073143;28;20024;-76
2021/09/12 06:36:56;;;;;;;18.33;12.55;;;;;;;;;;5068472;28;20024;-76
2021/09/12 06:39:22;;;;;;;19.65;13.50;;;;;;;;;;5059207;28;20021;-75
2021/09/12 06:41:48;;;;;;;20.17;13.98;;;;;;;;;;5071638;28;20029;-75
2021/09/12 06:44:14;;;;;;;20.52;13.63;;;;;;;;;;5075208;28;20505;-76
2021/09/12 06:46:40;;;;;;;19.67;13.68;;;;;;;;;;5074462;28;20112;-76
2021/09/12 06:49:08;;;;;;;19.98;13.85;;;;;;;;;;5085932;28;20543;-76
2021/09/12 06:51:33;;;;;;;20.27;13.68;;;;;;;;;;5075666;28;20420;-75
2021/09/12 06:53:58;;;;;;;20.45;13.48;;;;;;;;;;5066554;28;20024;-76
2021/09/12 06:56:24;;;;;;;20.90;14.70;;;;;;;;;;5079098;28;20028;-76
2021/09/12 06:58:50;;;;;;;18.40;13.43;;;;;;;;;;5091624;28;20048;-76
2021/09/12 07:01:16;;;;;;;19.42;13.98;;;;;;;;;;5083813;28;20028;-76
2021/09/12 07:03:42;;;;;;;20.08;14.02;;;;;;;;;;5069180;28;20036;-75
2021/09/12 07:06:08;;;;;;;21.30;13.20;;;;;;;;;;5091801;28;20106;-75
2021/09/12 07:08:34;;;;;;;23.48;14.50;;;;;;;;;;5076646;28;20427;-76
2021/09/12 07:10:59;;;;;;;19.45;13.05;;;;;;;;;;5069686;28;20020;-76
2021/09/12 07:13:25;;;;;;;22.80;13.63;;;;;;;;;;5053652;28;20075;-76
2021/09/12 07:15:50;;;;;;;19.33;13.57;;;;;;;;;;5052575;28;20029;-75
2021/09/12 07:18:16;;;;;;;17.48;13.07;;;;;;;;;;5071444;28;20026;-75
2021/09/12 07:20:42;;;;;;;19.60;13.45;;;;;;;;;;5051154;28;20024;-76
2021/09/12 07:23:08;;;;;;;17.23;12.85;;;;;;;;;;5067328;28;20031;-75
2021/09/12 07:25:33;;;;;;;18.77;12.63;;;;;;;;;;5070710;28;20132;-75
2021/09/12 07:27:59;;;;;;;21.15;13.45;;;;;;;;;;5075996;28;20024;-75
2021/09/12 07:30:24;;;;;;;21.10;13.68;;;;;;;;;;5071224;28;20056;-75
2021/09/12 07:32:51;;;;;;;19.67;13.45;;;;;;;;;;5071013;28;20112;-75
2021/09/12 07:35:16;;;;;;;18.58;13.65;;;;;;;;;;5071186;28;20107;-76
2021/09/12 07:37:42;;;;;;;24.58;14.55;;;;;;;;;;5084309;28;20055;-76
2021/09/12 07:40:08;;;;;;;23.95;14.60;;;;;;;;;;5089824;28;20506;-75
2021/09/12 07:42:33;;;;;;;20.70;14.52;;;;;;;;;;5070984;28;20025;-74
2021/09/12 07:44:58;;;;;;;21.67;14.32;;;;;;;;;;5066569;28;20029;-76
2021/09/12 07:47:24;;;;;;;21.30;13.90;;;;;;;;;;5068055;28;20366;-75
2021/09/12 07:49:50;;;;;;;20.65;13.02;;;;;;;;;;5070850;28;20496;-75
2021/09/12 07:52:15;;;;;;;18.48;12.48;;;;;;;;;;5070193;28;20020;-74
2021/09/12 07:54:41;;;;;;;19.77;13.18;;;;;;;;;;5069126;28;20094;-75
2021/09/12 07:57:06;;;;;;;23.15;12.60;;;;;;;;;;5070084;28;20532;-74
2021/09/12 07:59:32;;;;;;;18.85;13.15;;;;;;;;;;5068714;28;20166;-74
2021/09/12 08:01:57;;;;;;;18.90;12.82;;;;;;;;;;5051028;28;20032;-75
2021/09/12 08:04:22;;;;;;;19.75;13.02;;;;;;;;;;5063918;28;20032;-74
2021/09/12 08:06:48;;;;;;;22.50;13.40;;;;;;;;;;5066643;28;20111;-74
2021/09/12 08:09:13;;;;;;;22.13;13.52;;;;;;;;;;5061601;28;20141;-75
2021/09/12 08:11:39;;;;;;;19.92;12.27;;;;;;;;;;5075555;28;20025;-75
2021/09/12 08:14:05;;;;;;;19.45;13.10;;;;;;;;;;5073427;28;20357;-76
2021/09/12 08:16:30;;;;;;;21.90;14.30;;;;;;;;;;5064794;28;20032;-75
2021/09/12 08:18:56;;;;;;;22.23;13.73;;;;;;;;;;5053372;28;20510;-75
2021/09/12 08:21:21;;;;;;;21.73;13.77;;;;;;;;;;5062456;28;20016;-76
2021/09/12 08:23:47;;;;;;;21.48;13.73;;;;;;;;;;5074203;28;20413;-75
2021/09/12 08:26:13;;;;;;;23.67;15.18;;;;;;;;;;5074532;28;20103;-76
2021/09/12 08:28:38;;;;;;;21.35;13.75;;;;;;;;;;5076496;28;20031;-75
2021/09/12 08:31:03;;;;;;;25.10;14.43;;;;;;;;;;5085157;28;20032;-77
2021/09/12 08:33:29;;;;;;;22.35;14.60;;;;;;;;;;5073631;28;20025;-77
2021/09/12 08:35:55;;;;;;;23.75;14.57;;;;;;;;;;5068578;28;20438;-77
2021/09/12 08:38:20;;;;;;;23.52;14.20;;;;;;;;;;5066212;28;20033;-76
2021/09/12 08:40:46;;;;;;;23.25;14.23;;;;;;;;;;5063781;28;20024;-76
2021/09/12 08:43:12;;;;;;;22.35;13.63;;;;;;;;;;5065496;28;20064;-76
2021/09/12 08:45:38;;;;;;;24.15;13.50;;;;;;;;;;5058901;28;20028;-76
2021/09/12 08:48:05;;;;;;;23.20;14.30;;;;;;;;;;5072878;28;20035;-76
2021/09/12 08:50:30;;;;;;;27.08;14.63;;;;;;;;;;5065004;28;20078;-77
2021/09/12 08:52:56;;;;;;;24.30;14.57;;;;;;;;;;5058663;28;20322;-76
2021/09/12 08:55:21;;;;;;;25.27;14.43;;;;;;;;;;5058741;28;20039;-76
2021/09/12 08:57:49;;;;;;;23.70;14.50;;;;;;;;;;5070231;28;20138;-76
2021/09/12 09:00:23;;;;;;;25.60;14.02;;;;;;;;;;5068255;28;20045;-78
2021/09/12 09:02:49;;;;;;;23.02;14.88;;;;;;;;;;5061184;28;20032;-75
2021/09/12 09:05:26;;;;;;;25.13;14.30;;;;;;;;;;5066707;28;20029;-74
2021/09/12 09:08:02;;;;;;;20.15;12.80;;;;;;;;;;5077030;28;20434;-73
2021/09/12 09:10:35;;;;;;;20.85;13.20;;;;;;;;;;5076677;28;20348;-75
2021/09/12 09:13:01;;;;;;;20.38;13.23;;;;;;;;;;5074842;28;20017;-74
2021/09/12 09:15:26;;;;;;;21.15;12.80;;;;;;;;;;5076710;28;20124;-74
2021/09/12 09:17:57;;;;;;;21.80;12.88;;;;;;;;;;5078459;28;20047;-73
2021/09/12 09:20:25;;;;;;;20.20;13.18;;;;;;;;;;5069611;28;20368;-74
2021/09/12 09:22:52;;;;;;;18.77;13.13;;;;;;;;;;5071559;28;20029;-74
2021/09/12 09:25:21;;;;;;;22.67;13.68;;;;;;;;;;5078149;28;20024;-76
2021/09/12 09:27:53;;;;;;;19.83;13.32;;;;;;;;;;5097928;28;20078;-75
2021/09/12 09:30:18;;;;;;;24.65;14.75;;;;;;;;;;5076794;28;20104;-77
2021/09/12 09:32:44;;;;;;;20.67;12.98;;;;;;;;;;5077836;28;20129;-76
2021/09/12 09:35:13;;;;;;;20.90;13.50;;;;;;;;;;5077103;28;20066;-75
2021/09/12 09:37:47;;;;;;;17.67;12.55;;;;;;;;;;5083849;28;20464;-74
2021/09/12 09:40:13;;;;;;;20.67;13.13;;;;;;;;;;5084972;28;20030;-73
2021/09/12 09:42:38;;;;;;;20.00;12.50;;;;;;;;;;5094188;28;20106;-73
2021/09/12 09:45:08;;;;;;;19.63;13.05;;;;;;;;;;5088195;28;20077;-74
2021/09/12 09:47:35;;;;;;;18.05;12.00;;;;;;;;;;5081536;28;20077;-73
2021/09/12 09:50:14;;;;;;;18.35;11.35;;;;;;;;;;5089086;28;20052;-74
2021/09/12 09:52:42;;;;;;;16.83;11.60;;;;;;;;;;5081824;28;20024;-74
2021/09/12 09:55:09;;;;;;;13.23;10.77;;;;;;;;;;5086579;28;20040;-73
2021/09/12 09:57:35;;;;;;;14.90;10.82;;;;;;;;;;5085229;28;20031;-72
2021/09/12 10:00:03;;;;;;;15.90;10.35;;;;;;;;;;5074718;28;20391;-73
2021/09/12 10:02:31;;;;;;;16.38;11.50;;;;;;;;;;5073435;28;20494;-73
2021/09/12 10:04:59;;;;;;;14.70;10.98;;;;;;;;;;5089429;28;20528;-74
2021/09/12 10:07:26;;;;;;;15.40;10.23;;;;;;;;;;5074808;28;20103;-74
2021/09/12 10:09:51;;;;;;;14.07;10.20;;;;;;;;;;5061954;28;20165;-72
2021/09/12 10:12:17;;;;;;;13.90;9.93;;;;;;;;;;5074513;28;20029;-73
2021/09/12 10:14:46;;;;;;;14.43;10.05;;;;;;;;;;5087964;28;20388;-74
2021/09/12 10:17:15;;;;;;;14.18;9.40;;;;;;;;;;5093503;28;20364;-74
2021/09/12 10:19:42;;;;;;;15.05;10.02;;;;;;;;;;5063219;28;20036;-74
2021/09/12 10:22:13;;;;;;;14.38;11.13;;;;;;;;;;5079267;28;20031;-74
2021/09/12 10:25:00;;;;;;;15.57;10.73;;;;;;;;;;5092754;28;20028;-74
2021/09/12 10:27:55;;;;;;;14.27;10.63;;;;;;;;;;5092433;28;20016;-74
2021/09/12 10:30:37;;;;;;;17.15;10.73;;;;;;;;;;5072704;28;20060;-74
2021/09/12 10:33:09;;;;;;;14.82;10.93;;;;;;;;;;5069573;28;20129;-75
2021/09/12 10:35:46;;;;;;;18.58;12.05;;;;;;;;;;5071645;28;20033;-73
2021/09/12 10:38:14;;;;;;;22.08;14.40;;;;;;;;;;5070833;28;20029;-73
2021/09/12 10:40:48;;;;;;;23.02;14.07;;;;;;;;;;5071197;28;20020;-74
2021/09/12 10:43:25;;;;;;;21.08;13.75;;;;;;;;;;5072519;28;20434;-74
2021/09/12 10:46:06;;;;;;;20.30;13.77;;;;;;;;;;5052207;28;20109;-74
2021/09/12 10:48:33;;;;;;;21.60;13.38;;;;;;;;;;5051797;28;20028;-73
2021/09/12 10:51:04;;;;;;;21.92;13.30;;;;;;;;;;5051624;28;20530;-73
2021/09/12 10:54:00;;;;;;;20.17;12.93;;;;;;;;;;5051737;28;20025;-74
2021/09/12 10:56:25;;;;;;;18.40;12.07;;;;;;;;;;5046528;28;20281;-74
2021/09/12 10:58:58;;;;;;;19.27;12.35;;;;;;;;;;5084510;28;20066;-73
2021/09/12 11:01:34;;;;;;;;;;;;;;;;;;5092149;28;20023;-73
2021/09/12 11:04:01;;;;;;;12.63;9.23;;;;;;;;;;5078969;28;19916;-74
2021/09/12 11:06:35;;;;;;;13.43;9.90;;;;;;;;;;5071886;28;20024;-74
2021/09/12 11:09:03;;;;;;;12.20;9.20;;;;;;;;;;5072473;28;20539;-73
2021/09/12 11:11:28;;;;;;;13.70;9.77;;;;;;;;;;5072590;28;20021;-74
2021/09/12 11:13:55;;;;;;;12.50;8.68;;;;;;;;;;5071695;28;20034;-74
2021/09/12 11:16:23;;;;;;;11.50;8.15;;;;;;;;;;5072343;28;20066;-73
2021/09/12 11:18:50;;;;;;;11.80;8.80;;;;;;;;;;5071929;28;20028;-73
2021/09/12 11:21:36;;;;;;;10.15;7.47;;;;;;;;;;5071842;28;20024;-72
2021/09/12 11:24:13;;;;;;;9.48;7.85;;;;;;;;;;5071197;28;20016;-74
2021/09/12 11:27:00;;;;;;;13.55;9.10;;;;;;;;;;5078389;28;20035;-74
2021/09/12 11:29:27;;;;;;;10.93;7.22;;;;;;;;;;5067060;28;20124;-73
2021/09/12 11:32:00;;;;;;;11.25;7.57;;;;;;;;;;5071902;28;20028;-73
2021/09/12 11:34:26;;;;;;;9.25;7.35;;;;;;;;;;5075306;28;20097;-74
2021/09/12 11:36:52;;;;;;;10.95;7.03;;;;;;;;;;5076936;28;20055;-73
2021/09/12 11:39:21;;;;;;;11.60;8.38;;;;;;;;;;5088806;28;20059;-74
2021/09/12 11:41:46;;;;;;;11.60;8.93;;;;;;;;;;5090938;28;20028;-73
2021/09/12 11:44:12;;;;;;;14.10;8.73;;;;;;;;;;5090967;28;20028;-73
2021/09/12 11:46:49;;;;;;;14.95;10.25;;;;;;;;;;5091008;28;20039;-73
2021/09/12 11:49:17;;;;;;;14.57;9.57;;;;;;;;;;5090827;28;20481;-73
2021/09/12 11:51:49;;;;;;;15.52;10.52;;;;;;;;;;5090767;28;20112;-74
2021/09/12 11:54:27;;;;;;;12.00;10.05;;;;;;;;;;5091001;28;20048;-73
2021/09/12 11:57:06;;;;;;;10.38;8.02;;;;;;;;;;5075056;28;20457;-74
2021/09/12 11:59:36;;;;;;;9.75;7.15;;;;;;;;;;5070848;28;20049;-73
2021/09/12 12:02:02;;;;;;;10.57;6.80;;;;;;;;;;5070587;28;20024;-74
2021/09/12 12:04:29;;;;;;;8.73;5.43;;;;;;;;;;5070732;28;20395;-74
2021/09/12 12:06:57;;;;;;;7.97;5.20;;;;;;;;;;5070717;28;20412;-73
2021/09/12 12:09:29;;;;;;;7.43;5.32;;;;;;;;;;5070634;28;20040;-73
2021/09/12 12:12:04;;;;;;;5.27;4.37;;;;;;;;;;5070450;28;20383;-73
2021/09/12 12:14:29;;;;;;;5.28;4.05;;;;;;;;;;5070688;28;20099;-73
2021/09/12 12:17:02;;;;;;;5.88;3.60;;;;;;;;;;5070339;28;20052;-74
2021/09/12 12:19:34;;;;;;;5.30;3.58;;;;;;;;;;5070610;28;20035;-73
2021/09/12 12:22:05;;;;;;;5.07;3.90;;;;;;;;;;5070439;28;20107;-74
2021/09/12 12:24:39;;;;;;;6.10;4.32;;;;;;;;;;5070570;28;20035;-74
2021/09/12 12:27:10;;;;;;;7.90;5.55;;;;;;;;;;5075402;28;20325;-74
2021/09/12 12:29:40;;;;;;;12.73;7.75;;;;;;;;;;5067397;28;20060;-74
2021/09/12 12:32:08;;;;;;;11.50;8.93;;;;;;;;;;5070874;28;20031;-73
2021/09/12 12:34:37;;;;;;;11.38;8.88;;;;;;;;;;5089184;28;20032;-73
2021/09/12 12:37:03;;;;;;;13.35;9.18;;;;;;;;;;5081698;28;20347;-73
2021/09/12 12:39:29;;;;;;;11.15;9.13;;;;;;;;;;5054147;28;20032;-73
2021/09/12 12:41:55;;;;;;;14.57;8.40;;;;;;;;;;5079147;28;20032;-73
2021/09/12 12:44:21;;;;;;;16.30;10.02;;;;;;;;;;5071398;28;20027;-73
2021/09/12 12:46:47;;;;;;;13.98;9.75;;;;;;;;;;5087132;28;20032;-73
2021/09/12 12:49:25;;;;;;;12.95;9.10;;;;;;;;;;5080646;28;20020;-73
2021/09/12 12:52:09;;;;;;;13.70;9.50;;;;;;;;;;5070946;28;20617;-73
2021/09/12 12:54:38;;;;;;;13.45;10.27;;;;;;;;;;5068083;28;20025;-73
2021/09/12 12:57:04;;;;;;;15.23;10.20;;;;;;;;;;5073688;28;20045;-73
2021/09/12 12:59:29;;;;;;;12.32;9.32;;;;;;;;;;5070712;28;20044;-73
2021/09/12 13:01:55;;;;;;;18.27;8.95;;;;;;;;;;5079966;28;20309;-73
2021/09/12 13:04:21;;;;;;;12.15;7.90;;;;;;;;;;5094642;28;20024;-73
2021/09/12 13:06:46;;;;;;;11.20;8.57;;;;;;;;;;5085244;28;20484;-73
2021/09/12 13:09:12;;;;;;;12.07;8.23;;;;;;;;;;5084958;28;20598;-73
2021/09/12 13:11:37;;;;;;;10.32;7.95;;;;;;;;;;5073570;28;20028;-74
2021/09/12 13:14:03;;;;;;;12.15;9.32;;;;;;;;;;5074029;28;20012;-73
2021/09/12 13:16:30;;;;;;;11.15;8.30;;;;;;;;;;5084730;28;20024;-74
2021/09/12 13:18:55;;;;;;;14.95;8.38;;;;;;;;;;5079940;28;20024;-74
2021/09/12 13:21:21;;;;;;;10.98;8.15;;;;;;;;;;5093385;28;20047;-73
2021/09/12 13:23:46;;;;;;;14.88;10.00;;;;;;;;;;5076056;28;20484;-74
2021/09/12 13:26:12;;;;;;;13.57;9.88;;;;;;;;;;5075575;28;20025;-74
2021/09/12 13:28:38;;;;;;;16.13;10.35;;;;;;;;;;5084694;28;20046;-73
2021/09/12 13:31:04;;;;;;;14.90;9.98;;;;;;;;;;5079369;28;20056;-74
2021/09/12 13:33:31;;;;;;;17.15;11.15;;;;;;;;;;5074269;28;20013;-73
2021/09/12 13:36:00;;;;;;;13.93;9.25;;;;;;;;;;5074122;28;20642;-73
2021/09/12 13:38:26;;;;;;;12.68;9.05;;;;;;;;;;5082660;28;20024;-73
2021/09/12 13:40:52;;;;;;;12.57;8.90;;;;;;;;;;5094509;28;20038;-73
2021/09/12 13:43:17;;;;;;;12.48;8.70;;;;;;;;;;5081671;28;20021;-74
2021/09/12 13:45:43;;;;;;;10.45;8.52;;;;;;;;;;5074502;28;20029;-74
2021/09/12 13:48:08;;;;;;;10.55;7.95;;;;;;;;;;5077622;28;20020;-74
2021/09/12 13:50:34;;;;;;;10.18;7.40;;;;;;;;;;5056039;28;20039;-74
2021/09/12 13:53:00;;;;;;;9.02;6.97;;;;;;;;;;5080898;28;20013;-73
2021/09/12 13:55:26;;;;;;;11.27;7.40;;;;;;;;;;5088480;28;20399;-73
2021/09/12 13:57:51;;;;;;;11.60;7.30;;;;;;;;;;5075595;28;20020;-73
2021/09/12 14:00:17;;;;;;;12.68;7.28;;;;;;;;;;5083291;28;20087;-74
2021/09/12 14:02:42;;;;;;;11.65;8.18;;;;;;;;;;5082824;28;20532;-74
2021/09/12 14:05:08;;;;;;;9.80;6.95;;;;;;;;;;5072493;28;20021;-73
2021/09/12 14:07:34;;;;;;;10.65;6.45;;;;;;;;;;5083726;28;20406;-73
2021/09/12 14:10:01;;;;;;;11.00;6.97;;;;;;;;;;5085795;28;20027;-75
2021/09/12 14:12:27;;;;;;;10.55;6.93;;;;;;;;;;5087739;28;20157;-74
2021/09/12 14:14:52;;;;;;;10.15;6.53;;;;;;;;;;5078216;28;20068;-74
2021/09/12 14:17:18;;;;;;;9.40;5.80;;;;;;;;;;5077399;28;20028;-74
2021/09/12 14:19:44;;;;;;;7.90;5.20;;;;;;;;;;5086548;28;20545;-73
2021/09/12 14:22:09;;;;;;;9.40;5.43;;;;;;;;;;5086255;28;20384;-73
2021/09/12 14:24:34;;;;;;;8.13;5.32;;;;;;;;;;5082195;28;20031;-73